Terminal Aerodrome Forecast
Issued by NWS

Home | Current Version | Previous Version | Graphics & Text | Print | Product List | Glossary On
Versions: 1 2 3 4 5 6 7 8 9 10 11 12 13 14 15 16 17
000
FTUS43 KTOP 201100
TAFFOE
TAF
KFOE 201120Z 2012/2112 19010KT 3SM BR SKC
     FM201300 23012KT P6SM SCT090
     FM202000 27008KT P6SM VCTS BKN040CB
     FM210200 32006KT P6SM BKN050=

USA.gov is the U.S. government's official web portal to all federal, state and local government web resources and services.